Time;durP1;ratioP1;P1;durP2;ratioP2;P2;SDS_P1;SDS_P2;PMS_P1;PMS_P2;Temp;Humidity;BMP_temperature;BMP_pressure;BME280_temperature;BME280_humidity;BME280_pressure;Samples;Min_cycle;Max_cycle;Signal;HPM_P1;HPM_P2
2023/06/04 00:00:57;;;;;;;7.50;5.03;;;;;;;;;;5049866;28;20196;-30
2023/06/04 00:03:24;;;;;;;5.37;4.87;;;;;;;;;;5061845;28;20247;-27
2023/06/04 00:05:51;;;;;;;5.20;4.43;;;;;;;;;;5052173;28;20231;-27
2023/06/04 00:08:20;;;;;;;5.07;4.47;;;;;;;;;;5052801;28;20216;-28
2023/06/04 00:10:48;;;;;;;5.30;4.57;;;;;;;;;;5065854;28;20200;-29
2023/06/04 00:13:16;;;;;;;6.03;4.47;;;;;;;;;;5064237;28;20212;-28
2023/06/04 00:15:43;;;;;;;5.67;4.53;;;;;;;;;;5052363;28;20221;-26
2023/06/04 00:18:13;;;;;;;6.03;4.40;;;;;;;;;;5055415;28;20210;-28
2023/06/04 00:20:40;;;;;;;7.27;4.93;;;;;;;;;;5066555;28;20209;-29
2023/06/04 00:23:07;;;;;;;6.90;5.30;;;;;;;;;;5050094;28;20240;-28
2023/06/04 00:25:35;;;;;;;4.70;4.13;;;;;;;;;;5049844;28;20315;-28
2023/06/04 00:28:02;;;;;;;5.60;4.47;;;;;;;;;;5059053;28;20217;-27
2023/06/04 00:30:31;;;;;;;8.17;4.70;;;;;;;;;;5060206;28;20559;-25
2023/06/04 00:32:58;;;;;;;5.97;4.03;;;;;;;;;;5052369;28;20381;-28
2023/06/04 00:35:25;;;;;;;7.53;4.37;;;;;;;;;;5051755;28;20224;-29
2023/06/04 00:37:52;;;;;;;5.83;4.50;;;;;;;;;;5050218;28;20301;-29
2023/06/04 00:40:20;;;;;;;6.03;4.47;;;;;;;;;;5049918;28;20711;-29
2023/06/04 00:42:49;;;;;;;8.27;4.43;;;;;;;;;;5056115;28;20353;-26
2023/06/04 00:45:18;;;;;;;4.93;4.43;;;;;;;;;;5069492;28;20254;-28
2023/06/04 00:47:46;;;;;;;7.10;5.23;;;;;;;;;;5049549;28;20213;-27
2023/06/04 00:50:14;;;;;;;6.50;4.60;;;;;;;;;;5069408;28;20216;-27
2023/06/04 00:52:42;;;;;;;5.50;4.77;;;;;;;;;;5071679;28;20196;-25
2023/06/04 00:55:09;;;;;;;7.87;4.87;;;;;;;;;;5068086;28;20221;-29
2023/06/04 00:57:36;;;;;;;4.67;3.97;;;;;;;;;;5052939;28;20199;-26
2023/06/04 01:00:05;;;;;;;5.67;4.13;;;;;;;;;;5066100;28;20211;-28
2023/06/04 01:02:33;;;;;;;4.73;4.17;;;;;;;;;;5058996;28;20322;-28
2023/06/04 01:05:04;;;;;;;6.90;4.67;;;;;;;;;;5060597;28;20209;-27
2023/06/04 01:07:31;;;;;;;4.63;4.13;;;;;;;;;;5071537;28;20208;-27
2023/06/04 01:09:58;;;;;;;4.60;3.60;;;;;;;;;;5064291;28;20209;-27
2023/06/04 01:12:26;;;;;;;4.37;3.83;;;;;;;;;;5067562;28;20222;-26
2023/06/04 01:14:53;;;;;;;5.23;4.20;;;;;;;;;;5071358;28;20200;-25
2023/06/04 01:17:23;;;;;;;5.13;4.13;;;;;;;;;;5058920;28;20229;-28
2023/06/04 01:20:12;;;;;;;5.10;4.60;;;;;;;;;;5053572;28;20203;-29
2023/06/04 01:22:42;;;;;;;6.50;4.20;;;;;;;;;;5072427;28;20220;-28
2023/06/04 01:25:19;;;;;;;5.53;4.50;;;;;;;;;;5069381;28;20207;-26
2023/06/04 01:27:48;;;;;;;5.73;4.53;;;;;;;;;;5056712;28;20261;-27
2023/06/04 01:30:16;;;;;;;4.80;4.40;;;;;;;;;;5069522;28;20215;-28
2023/06/04 01:32:43;;;;;;;6.13;4.03;;;;;;;;;;5065791;28;20207;-29
2023/06/04 01:35:12;;;;;;;7.20;4.10;;;;;;;;;;5063864;28;20220;-26
2023/06/04 01:37:39;;;;;;;7.23;4.63;;;;;;;;;;5053179;28;20211;-26
2023/06/04 01:40:09;;;;;;;5.90;4.60;;;;;;;;;;5052859;28;20219;-27
2023/06/04 01:42:36;;;;;;;4.80;3.90;;;;;;;;;;5058826;28;20232;-27
2023/06/04 01:45:03;;;;;;;4.50;3.73;;;;;;;;;;5064760;28;20203;-26
2023/06/04 01:47:30;;;;;;;4.63;3.90;;;;;;;;;;5063592;28;20204;-27
2023/06/04 01:49:57;;;;;;;4.40;3.70;;;;;;;;;;5068203;28;20231;-29
2023/06/04 01:52:24;;;;;;;6.07;3.97;;;;;;;;;;5071571;28;20207;-26
2023/06/04 01:54:52;;;;;;;4.30;3.83;;;;;;;;;;5074809;28;20264;-27
2023/06/04 01:57:21;;;;;;;5.33;4.17;;;;;;;;;;5067744;28;20266;-28
2023/06/04 01:59:48;;;;;;;4.27;3.87;;;;;;;;;;5058394;28;20222;-27
2023/06/04 02:02:15;;;;;;;4.57;3.83;;;;;;;;;;5067227;28;20229;-25
2023/06/04 02:04:44;;;;;;;3.80;3.40;;;;;;;;;;5074178;28;20206;-26
2023/06/04 02:07:17;;;;;;;4.70;4.03;;;;;;;;;;5060018;28;20227;-27
2023/06/04 02:09:44;;;;;;;5.03;3.87;;;;;;;;;;5055361;28;20642;-29
2023/06/04 02:12:12;;;;;;;6.97;4.17;;;;;;;;;;5057807;28;20202;-25
2023/06/04 02:14:41;;;;;;;5.77;4.30;;;;;;;;;;5056618;28;20342;-26
2023/06/04 02:17:12;;;;;;;5.33;3.73;;;;;;;;;;5063235;28;20227;-27
2023/06/04 02:19:44;;;;;;;4.63;4.23;;;;;;;;;;5071679;28;20215;-26
2023/06/04 02:22:11;;;;;;;4.97;4.03;;;;;;;;;;5072759;28;20202;-30
2023/06/04 02:24:42;;;;;;;6.40;4.00;;;;;;;;;;5065549;28;20229;-27
2023/06/04 02:27:14;;;;;;;5.03;3.73;;;;;;;;;;5057324;28;20255;-29
2023/06/04 02:29:43;;;;;;;4.23;3.33;;;;;;;;;;5071832;28;20209;-30
2023/06/04 02:32:10;;;;;;;5.20;3.60;;;;;;;;;;5062238;28;20246;-26
2023/06/04 02:34:37;;;;;;;3.97;3.37;;;;;;;;;;5057082;28;20204;-27
2023/06/04 02:37:05;;;;;;;4.37;3.70;;;;;;;;;;5057959;28;20228;-25
2023/06/04 02:39:32;;;;;;;5.10;3.40;;;;;;;;;;5051385;28;20214;-30
2023/06/04 02:41:59;;;;;;;3.57;3.27;;;;;;;;;;5053567;28;20211;-25
2023/06/04 02:44:28;;;;;;;7.33;3.83;;;;;;;;;;5059569;28;20223;-25
2023/06/04 02:46:56;;;;;;;4.17;3.20;;;;;;;;;;5054841;28;20239;-24
2023/06/04 02:49:24;;;;;;;3.60;3.23;;;;;;;;;;5060188;28;20364;-28
2023/06/04 02:51:52;;;;;;;4.17;3.73;;;;;;;;;;5064458;28;20218;-30
2023/06/04 02:54:19;;;;;;;4.93;3.90;;;;;;;;;;5071874;28;20214;-26
2023/06/04 02:56:48;;;;;;;4.90;3.30;;;;;;;;;;5055290;28;20278;-27
2023/06/04 02:59:16;;;;;;;3.10;2.80;;;;;;;;;;5067724;28;20203;-30
2023/06/04 03:01:43;;;;;;;5.57;3.40;;;;;;;;;;5052185;28;20565;-24
2023/06/04 03:04:15;;;;;;;4.80;3.57;;;;;;;;;;5068360;28;20227;-28
2023/06/04 03:06:44;;;;;;;5.93;3.30;;;;;;;;;;5071671;28;20529;-27
2023/06/04 03:09:11;;;;;;;3.47;3.17;;;;;;;;;;5072315;28;20293;-25
2023/06/04 03:11:39;;;;;;;4.03;3.60;;;;;;;;;;5068054;28;20207;-27
2023/06/04 03:14:08;;;;;;;4.90;3.67;;;;;;;;;;5070752;28;20202;-27
2023/06/04 03:16:42;;;;;;;3.20;2.90;;;;;;;;;;5063420;28;20228;-26
2023/06/04 03:19:11;;;;;;;3.30;3.00;;;;;;;;;;5064837;28;20206;-28
2023/06/04 03:21:40;;;;;;;6.60;3.37;;;;;;;;;;5065383;28;20255;-27
2023/06/04 03:24:07;;;;;;;3.97;3.53;;;;;;;;;;5073142;28;20239;-30
2023/06/04 03:26:34;;;;;;;2.90;2.70;;;;;;;;;;5067138;28;20230;-26
2023/06/04 03:29:01;;;;;;;4.30;3.20;;;;;;;;;;5061448;28;20255;-29
2023/06/04 03:31:29;;;;;;;4.40;3.40;;;;;;;;;;5052614;28;20503;-28
2023/06/04 03:33:56;;;;;;;5.33;2.77;;;;;;;;;;5069194;28;20206;-28
2023/06/04 03:36:31;;;;;;;3.23;2.93;;;;;;;;;;5072984;28;20317;-27
2023/06/04 03:39:04;;;;;;;4.00;3.13;;;;;;;;;;5073144;28;20201;-26
2023/06/04 03:41:31;;;;;;;3.20;2.90;;;;;;;;;;5063625;28;20217;-30
2023/06/04 03:43:58;;;;;;;2.97;2.67;;;;;;;;;;5059251;28;20246;-25
2023/06/04 03:46:28;;;;;;;5.87;2.70;;;;;;;;;;5051813;28;20225;-27
2023/06/04 03:48:56;;;;;;;4.23;3.17;;;;;;;;;;5053118;28;20209;-25
2023/06/04 03:51:26;;;;;;;2.90;2.60;;;;;;;;;;5061509;28;20201;-24
2023/06/04 03:53:53;;;;;;;4.57;3.03;;;;;;;;;;5073120;28;20259;-27
2023/06/04 03:56:22;;;;;;;3.20;2.90;;;;;;;;;;5063049;28;20232;-27
2023/06/04 03:58:49;;;;;;;3.47;2.90;;;;;;;;;;5053539;28;20287;-27
2023/06/04 04:01:18;;;;;;;6.00;2.47;;;;;;;;;;5065204;28;20209;-26
2023/06/04 04:03:49;;;;;;;3.63;2.47;;;;;;;;;;5064934;28;20217;-28
2023/06/04 04:06:16;;;;;;;3.97;2.97;;;;;;;;;;5072661;28;20225;-25
2023/06/04 04:08:43;;;;;;;3.37;2.40;;;;;;;;;;5073165;28;20205;-28
2023/06/04 04:11:11;;;;;;;3.30;2.53;;;;;;;;;;5065093;28;20209;-26
2023/06/04 04:13:39;;;;;;;3.30;3.00;;;;;;;;;;5070227;28;20205;-28
2023/06/04 04:16:07;;;;;;;3.83;2.73;;;;;;;;;;5068322;28;20222;-28
2023/06/04 04:18:34;;;;;;;3.73;2.80;;;;;;;;;;5061691;28;20212;-26
2023/06/04 04:21:02;;;;;;;4.00;2.97;;;;;;;;;;5066753;28;20205;-29
2023/06/04 04:23:30;;;;;;;4.37;2.50;;;;;;;;;;5051949;28;20222;-30
2023/06/04 04:25:58;;;;;;;2.30;2.10;;;;;;;;;;5054482;28;20230;-28
2023/06/04 04:28:28;;;;;;;3.10;2.80;;;;;;;;;;5065114;28;20206;-26
2023/06/04 04:30:57;;;;;;;2.33;2.13;;;;;;;;;;5065332;28;20269;-27
2023/06/04 04:33:25;;;;;;;2.30;2.10;;;;;;;;;;5065337;28;20202;-25
2023/06/04 04:35:53;;;;;;;4.17;2.63;;;;;;;;;;5055866;28;20217;-26
2023/06/04 04:38:23;;;;;;;3.43;2.40;;;;;;;;;;5072660;28;20205;-25
2023/06/04 04:40:52;;;;;;;3.20;2.07;;;;;;;;;;5063652;28;20216;-26
2023/06/04 04:43:19;;;;;;;2.50;2.30;;;;;;;;;;5148930;22;20241;-28
2023/06/04 04:45:46;;;;;;;3.00;2.50;;;;;;;;;;5050147;28;20230;-24
2023/06/04 04:48:17;;;;;;;4.27;2.20;;;;;;;;;;5049085;28;20292;-27
2023/06/04 04:50:45;;;;;;;3.00;2.23;;;;;;;;;;5063474;28;20243;-25
2023/06/04 04:53:12;;;;;;;2.20;2.00;;;;;;;;;;5071920;28;20201;-28
2023/06/04 04:55:39;;;;;;;3.93;2.00;;;;;;;;;;5048206;28;20223;-26
2023/06/04 04:58:09;;;;;;;4.43;2.33;;;;;;;;;;5052225;28;20242;-28
2023/06/04 05:00:37;;;;;;;4.60;2.23;;;;;;;;;;5052095;28;20256;-28
2023/06/04 05:03:04;;;;;;;3.37;2.37;;;;;;;;;;5048332;28;20204;-27
2023/06/04 05:05:33;;;;;;;2.97;1.97;;;;;;;;;;5049975;28;20264;-26
2023/06/04 05:08:00;;;;;;;2.87;2.40;;;;;;;;;;5053043;28;20210;-27
2023/06/04 05:10:27;;;;;;;3.43;2.30;;;;;;;;;;5047154;28;20555;-28
2023/06/04 05:12:55;;;;;;;1.90;1.80;;;;;;;;;;5066155;28;20197;-27
2023/06/04 05:15:22;;;;;;;4.23;2.20;;;;;;;;;;5072283;28;20197;-26
2023/06/04 05:17:52;;;;;;;4.60;1.80;;;;;;;;;;5043687;28;20207;-28
2023/06/04 05:20:20;;;;;;;2.23;2.00;;;;;;;;;;5066384;28;20216;-25
2023/06/04 05:22:49;;;;;;;6.40;2.10;;;;;;;;;;5029936;28;20669;-29
2023/06/04 05:25:16;;;;;;;2.50;2.10;;;;;;;;;;5033293;28;20227;-26
2023/06/04 05:27:43;;;;;;;2.20;2.00;;;;;;;;;;5049454;28;20203;-29
2023/06/04 05:30:11;;;;;;;2.20;2.00;;;;;;;;;;5064459;28;20251;-27
2023/06/04 05:32:40;;;;;;;5.30;2.27;;;;;;;;;;5053309;28;20374;-28
2023/06/04 05:35:08;;;;;;;2.77;2.23;;;;;;;;;;5052446;28;20202;-28
2023/06/04 05:37:37;;;;;;;3.23;1.90;;;;;;;;;;5068518;28;20204;-27
2023/06/04 05:40:07;;;;;;;2.90;1.77;;;;;;;;;;5069825;28;20214;-30
2023/06/04 05:42:34;;;;;;;2.80;1.73;;;;;;;;;;5046240;28;20223;-26
2023/06/04 05:45:01;;;;;;;1.90;1.80;;;;;;;;;;5051475;28;20239;-28
2023/06/04 05:47:29;;;;;;;2.20;1.70;;;;;;;;;;5041741;28;20225;-26
2023/06/04 05:49:56;;;;;;;1.93;1.70;;;;;;;;;;5064811;28;20209;-26
2023/06/04 05:52:24;;;;;;;2.80;1.33;;;;;;;;;;5068516;28;20230;-28
2023/06/04 05:54:51;;;;;;;1.53;1.43;;;;;;;;;;5065475;28;20199;-28
2023/06/04 05:57:20;;;;;;;1.97;1.70;;;;;;;;;;5047619;28;20236;-28
2023/06/04 05:59:47;;;;;;;4.57;1.80;;;;;;;;;;5053334;28;20613;-29
2023/06/04 06:02:15;;;;;;;1.63;1.53;;;;;;;;;;5047325;28;20240;-27
2023/06/04 06:04:42;;;;;;;2.27;2.00;;;;;;;;;;5061489;28;20346;-29
2023/06/04 06:07:09;;;;;;;2.77;1.60;;;;;;;;;;5055962;28;20228;-26
2023/06/04 06:09:36;;;;;;;1.77;1.50;;;;;;;;;;5055571;28;20209;-25
2023/06/04 06:12:05;;;;;;;2.43;1.93;;;;;;;;;;5051002;28;20213;-27
2023/06/04 06:14:33;;;;;;;1.77;1.67;;;;;;;;;;5072689;28;20290;-31
2023/06/04 06:17:03;;;;;;;2.07;1.10;;;;;;;;;;5059333;28;20229;-30
2023/06/04 06:19:30;;;;;;;2.40;1.53;;;;;;;;;;5052182;28;20263;-31
2023/06/04 06:21:58;;;;;;;2.97;1.60;;;;;;;;;;5061790;28;20201;-29
2023/06/04 06:24:25;;;;;;;2.50;1.70;;;;;;;;;;5054660;28;20286;-27
2023/06/04 06:26:52;;;;;;;4.37;1.60;;;;;;;;;;5053759;28;20224;-29
2023/06/04 06:29:20;;;;;;;3.00;1.60;;;;;;;;;;5058396;28;20220;-29
2023/06/04 06:31:48;;;;;;;1.77;1.67;;;;;;;;;;5058873;28;20254;-29
2023/06/04 06:34:15;;;;;;;3.60;1.53;;;;;;;;;;5054221;28;20243;-28
2023/06/04 06:36:44;;;;;;;3.80;2.90;;;;;;;;;;5054500;28;20228;-29
2023/06/04 06:39:11;;;;;;;6.10;1.80;;;;;;;;;;5053059;28;20538;-27
2023/06/04 06:41:39;;;;;;;3.27;2.03;;;;;;;;;;5044220;28;20579;-29
2023/06/04 06:44:06;;;;;;;2.93;1.73;;;;;;;;;;5067438;28;20233;-29
2023/06/04 06:46:33;;;;;;;1.77;1.60;;;;;;;;;;5046325;28;20222;-31
2023/06/04 06:49:02;;;;;;;5.07;1.80;;;;;;;;;;5059435;28;20209;-28
2023/06/04 06:51:29;;;;;;;4.10;1.70;;;;;;;;;;5062330;28;20210;-28
2023/06/04 06:53:56;;;;;;;1.83;1.70;;;;;;;;;;5054367;28;20206;-30
2023/06/04 06:56:23;;;;;;;2.07;1.63;;;;;;;;;;5046620;28;20218;-30
2023/06/04 06:58:51;;;;;;;1.97;1.70;;;;;;;;;;5061408;28;20209;-28
2023/06/04 07:01:18;;;;;;;1.80;1.45;;;;;;;;;;5051153;28;20289;-32
2023/06/04 07:03:45;;;;;;;3.25;1.98;;;;;;;;;;5053224;28;20205;-29
2023/06/04 07:06:13;;;;;;;1.67;1.38;;;;;;;;;;5073411;28;20234;-29
2023/06/04 07:08:42;;;;;;;3.63;2.17;;;;;;;;;;5073890;28;20205;-28
2023/06/04 07:11:11;;;;;;;3.45;1.60;;;;;;;;;;5049567;28;20207;-31
2023/06/04 07:13:38;;;;;;;3.42;2.30;;;;;;;;;;5056522;28;20239;-30
2023/06/04 07:16:06;;;;;;;1.90;1.80;;;;;;;;;;5056911;28;20310;-30
2023/06/04 07:18:33;;;;;;;4.03;1.88;;;;;;;;;;5049741;28;20207;-32
2023/06/04 07:21:00;;;;;;;3.15;1.73;;;;;;;;;;5066274;28;20210;-27
2023/06/04 07:23:29;;;;;;;2.97;1.83;;;;;;;;;;5051740;28;20565;-31
2023/06/04 07:25:56;;;;;;;3.03;1.83;;;;;;;;;;5047807;28;20228;-31
2023/06/04 07:28:23;;;;;;;1.95;1.73;;;;;;;;;;5040801;28;20215;-31
2023/06/04 07:30:50;;;;;;;3.17;1.85;;;;;;;;;;5058978;28;20207;-32
2023/06/04 07:33:17;;;;;;;3.67;1.98;;;;;;;;;;5041985;28;20208;-31
2023/06/04 07:35:44;;;;;;;2.05;1.52;;;;;;;;;;5070141;28;20549;-31
2023/06/04 07:38:11;;;;;;;4.75;2.15;;;;;;;;;;5071106;28;20213;-33
2023/06/04 07:40:40;;;;;;;2.10;1.83;;;;;;;;;;5047185;28;20216;-32
2023/06/04 07:43:07;;;;;;;3.35;1.90;;;;;;;;;;5059430;28;20212;-27
2023/06/04 07:45:34;;;;;;;3.10;1.95;;;;;;;;;;5068645;28;20228;-27
2023/06/04 07:48:01;;;;;;;1.98;1.80;;;;;;;;;;5050500;28;20294;-29
2023/06/04 07:50:29;;;;;;;2.85;2.33;;;;;;;;;;5060862;28;20207;-32
2023/06/04 07:52:56;;;;;;;3.50;2.08;;;;;;;;;;5053131;28;20216;-32
2023/06/04 07:55:23;;;;;;;2.90;2.00;;;;;;;;;;5050437;28;20219;-29
2023/06/04 07:57:52;;;;;;;2.10;1.70;;;;;;;;;;5052639;28;20205;-30
2023/06/04 08:00:19;;;;;;;3.63;1.90;;;;;;;;;;5060684;28;20268;-32
2023/06/04 08:02:48;;;;;;;3.65;1.67;;;;;;;;;;5060382;28;20210;-35
2023/06/04 08:05:15;;;;;;;2.15;1.98;;;;;;;;;;5070261;28;20328;-29
2023/06/04 08:07:43;;;;;;;2.30;1.92;;;;;;;;;;5073174;28;20211;-28
2023/06/04 08:10:10;;;;;;;2.88;1.92;;;;;;;;;;5060931;28;20217;-29
2023/06/04 08:12:37;;;;;;;1.95;1.70;;;;;;;;;;5045921;28;20213;-30
2023/06/04 08:15:07;;;;;;;4.43;2.00;;;;;;;;;;5066550;28;20580;-32
2023/06/04 08:17:34;;;;;;;2.15;1.95;;;;;;;;;;5047676;28;20273;-31
2023/06/04 08:20:01;;;;;;;4.00;1.70;;;;;;;;;;5064683;28;20201;-31
2023/06/04 08:22:29;;;;;;;3.20;1.95;;;;;;;;;;5068938;28;20214;-32
2023/06/04 08:24:56;;;;;;;5.25;2.05;;;;;;;;;;5071137;28;20228;-34
2023/06/04 08:27:23;;;;;;;4.65;1.90;;;;;;;;;;5052436;28;20643;-29
2023/06/04 08:29:51;;;;;;;3.53;1.80;;;;;;;;;;5060079;28;20234;-32
2023/06/04 08:32:20;;;;;;;3.30;2.00;;;;;;;;;;5043459;28;20206;-27
2023/06/04 08:34:47;;;;;;;4.50;2.10;;;;;;;;;;5046835;28;20626;-30
2023/06/04 08:37:15;;;;;;;2.83;2.08;;;;;;;;;;5070637;28;20230;-31
2023/06/04 08:39:42;;;;;;;2.85;1.80;;;;;;;;;;5066804;28;20216;-32
2023/06/04 08:42:11;;;;;;;3.97;2.13;;;;;;;;;;5046716;28;20207;-32
2023/06/04 08:44:39;;;;;;;3.83;2.10;;;;;;;;;;5060351;28;20201;-30
2023/06/04 08:47:07;;;;;;;2.90;1.98;;;;;;;;;;5052139;28;20232;-29
2023/06/04 08:49:37;;;;;;;5.15;1.95;;;;;;;;;;5060254;28;20213;-30
2023/06/04 08:52:05;;;;;;;2.90;1.75;;;;;;;;;;5058328;28;20211;-30
2023/06/04 08:54:33;;;;;;;2.30;1.98;;;;;;;;;;5052235;28;20209;-29
2023/06/04 08:57:01;;;;;;;2.67;2.08;;;;;;;;;;5041725;28;20229;-33
2023/06/04 08:59:29;;;;;;;2.05;1.90;;;;;;;;;;5057933;28;20225;-27
2023/06/04 09:01:56;;;;;;;2.25;1.92;;;;;;;;;;5050397;28;20207;-30
2023/06/04 09:04:23;;;;;;;1.92;1.75;;;;;;;;;;5057185;28;20205;-32
2023/06/04 09:06:51;;;;;;;1.95;1.77;;;;;;;;;;5059933;28;20240;-30
2023/06/04 09:09:19;;;;;;;3.45;1.95;;;;;;;;;;5051365;28;20227;-33
2023/06/04 09:11:50;;;;;;;4.10;2.13;;;;;;;;;;5042465;28;20206;-31
2023/06/04 09:14:18;;;;;;;4.57;2.03;;;;;;;;;;5054950;28;20200;-30
2023/06/04 09:16:46;;;;;;;2.28;2.05;;;;;;;;;;5043788;28;20216;-31
2023/06/04 09:19:13;;;;;;;3.33;2.13;;;;;;;;;;5048936;28;20215;-29
2023/06/04 09:21:54;;;;;;;4.15;2.15;;;;;;;;;;5062537;28;20211;-27
2023/06/04 09:24:22;;;;;;;2.92;1.85;;;;;;;;;;5067287;28;20287;-30
2023/06/04 09:26:49;;;;;;;3.17;2.03;;;;;;;;;;5051205;28;20235;-28
2023/06/04 09:29:16;;;;;;;2.30;1.92;;;;;;;;;;5068091;28;20202;-31
2023/06/04 09:31:46;;;;;;;2.17;1.98;;;;;;;;;;5062498;28;20206;-32
2023/06/04 09:34:13;;;;;;;2.47;2.28;;;;;;;;;;5054472;28;20289;-29
2023/06/04 09:36:41;;;;;;;4.18;2.28;;;;;;;;;;5056463;28;20474;-32
2023/06/04 09:39:17;;;;;;;3.45;2.17;;;;;;;;;;5056608;28;20213;-31
2023/06/04 09:41:44;;;;;;;2.17;1.98;;;;;;;;;;5053351;28;20207;-30
2023/06/04 09:44:12;;;;;;;3.10;2.20;;;;;;;;;;5052545;28;20215;-29
2023/06/04 09:46:39;;;;;;;2.78;2.50;;;;;;;;;;5054380;28;20430;-30
2023/06/04 09:49:06;;;;;;;3.83;2.10;;;;;;;;;;5056625;28;20208;-31
2023/06/04 09:51:34;;;;;;;2.85;2.33;;;;;;;;;;5063735;28;20213;-33
2023/06/04 09:54:01;;;;;;;4.63;2.53;;;;;;;;;;5053471;28;20213;-29
2023/06/04 09:56:30;;;;;;;4.65;2.25;;;;;;;;;;5047472;28;20225;-29
2023/06/04 09:59:01;;;;;;;2.65;2.20;;;;;;;;;;5051910;28;20207;-31
2023/06/04 10:01:28;;;;;;;5.07;2.00;;;;;;;;;;5056578;28;20207;-31
2023/06/04 10:03:56;;;;;;;2.55;2.30;;;;;;;;;;5048184;28;20199;-27
2023/06/04 10:06:27;;;;;;;2.13;1.77;;;;;;;;;;5057089;28;20310;-33
2023/06/04 10:08:55;;;;;;;2.33;2.13;;;;;;;;;;5053642;28;20214;-30
2023/06/04 10:11:26;;;;;;;3.85;1.90;;;;;;;;;;5047846;28;20215;-32
2023/06/04 10:13:58;;;;;;;3.35;2.30;;;;;;;;;;5040544;28;20207;-29
2023/06/04 10:16:27;;;;;;;2.58;2.35;;;;;;;;;;5048394;28;20224;-31
2023/06/04 10:18:55;;;;;;;3.83;2.42;;;;;;;;;;5045873;28;20207;-29
2023/06/04 10:21:22;;;;;;;2.95;2.67;;;;;;;;;;5071584;28;20267;-29
2023/06/04 10:23:50;;;;;;;3.65;2.80;;;;;;;;;;5074455;28;20218;-31
2023/06/04 10:26:18;;;;;;;4.05;2.50;;;;;;;;;;5069316;28;20256;-32
2023/06/04 10:28:45;;;;;;;5.53;2.95;;;;;;;;;;5055428;28;20227;-27
2023/06/04 10:31:14;;;;;;;4.03;3.17;;;;;;;;;;5062908;28;20208;-30
2023/06/04 10:33:41;;;;;;;3.00;2.70;;;;;;;;;;5049546;28;20233;-30
2023/06/04 10:36:18;;;;;;;4.15;2.60;;;;;;;;;;5067404;28;20229;-28
2023/06/04 10:38:48;;;;;;;3.17;2.83;;;;;;;;;;5054770;28;20256;-31
2023/06/04 10:41:16;;;;;;;5.35;2.95;;;;;;;;;;5052848;28;20202;-32
2023/06/04 10:43:44;;;;;;;4.30;2.80;;;;;;;;;;5056940;28;20222;-30
2023/06/04 10:46:16;;;;;;;4.65;2.83;;;;;;;;;;5297712;22;20411;-34
2023/06/04 10:48:47;;;;;;;3.63;3.00;;;;;;;;;;5048407;28;20221;-30
2023/06/04 10:51:14;;;;;;;6.50;2.60;;;;;;;;;;5054256;28;20208;-32
2023/06/04 10:53:41;;;;;;;4.00;2.70;;;;;;;;;;5053827;28;20214;-29
2023/06/04 10:56:08;;;;;;;3.08;2.75;;;;;;;;;;5050877;28;20227;-32
2023/06/04 10:58:35;;;;;;;3.75;2.78;;;;;;;;;;5052695;28;20210;-32
2023/06/04 11:01:03;;;;;;;4.15;2.92;;;;;;;;;;5065650;28;20226;-32
2023/06/04 11:03:38;;;;;;;3.28;2.70;;;;;;;;;;5052187;28;20234;-35
2023/06/04 11:06:16;;;;;;;4.10;2.60;;;;;;;;;;5064806;28;20225;-33
2023/06/04 11:08:43;;;;;;;3.47;3.08;;;;;;;;;;5074305;28;20243;-35
2023/06/04 11:11:14;;;;;;;3.92;3.30;;;;;;;;;;5055287;28;20279;-34
2023/06/04 11:13:41;;;;;;;5.43;2.80;;;;;;;;;;5060313;28;20577;-32
2023/06/04 11:16:18;;;;;;;3.25;2.88;;;;;;;;;;5069035;28;20250;-45
2023/06/04 11:18:55;;;;;;;3.10;2.72;;;;;;;;;;5041208;28;20207;-37
2023/06/04 11:21:23;;;;;;;4.70;2.85;;;;;;;;;;5060614;28;20207;-41
2023/06/04 11:23:50;;;;;;;3.28;2.97;;;;;;;;;;5067882;28;20218;-37
2023/06/04 11:26:17;;;;;;;3.47;2.67;;;;;;;;;;5047395;28;20233;-38
2023/06/04 11:28:45;;;;;;;4.28;2.92;;;;;;;;;;5060449;28;20201;-41
2023/06/04 11:31:12;;;;;;;3.20;2.78;;;;;;;;;;5051993;28;20219;-36
2023/06/04 11:33:43;;;;;;;4.90;2.88;;;;;;;;;;5052209;28;20214;-40
2023/06/04 11:36:12;;;;;;;3.22;2.80;;;;;;;;;;5060433;28;20219;-41
2023/06/04 11:38:39;;;;;;;3.38;2.90;;;;;;;;;;5072356;28;20207;-36
2023/06/04 11:41:06;;;;;;;3.50;3.15;;;;;;;;;;5043218;28;20214;-39
2023/06/04 11:43:39;;;;;;;7.90;2.90;;;;;;;;;;5061427;28;20207;-41
2023/06/04 11:46:06;;;;;;;5.03;3.10;;;;;;;;;;5071622;28;20621;-40
2023/06/04 11:48:34;;;;;;;4.03;3.22;;;;;;;;;;5050718;28;20203;-39
2023/06/04 11:51:06;;;;;;;3.65;3.20;;;;;;;;;;5068980;28;20206;-40
2023/06/04 11:53:35;;;;;;;4.47;3.22;;;;;;;;;;5054033;28;20202;-40
2023/06/04 11:56:02;;;;;;;4.68;3.30;;;;;;;;;;5045593;28;20240;-36
2023/06/04 11:58:29;;;;;;;4.22;2.63;;;;;;;;;;5050727;28;20297;-38
2023/06/04 12:00:56;;;;;;;4.25;3.28;;;;;;;;;;5061301;28;20207;-37
2023/06/04 12:03:32;;;;;;;3.80;2.95;;;;;;;;;;5052055;28;20264;-32
2023/06/04 12:05:59;;;;;;;3.08;2.35;;;;;;;;;;5038004;28;20230;-36
2023/06/04 12:08:26;;;;;;;3.97;2.80;;;;;;;;;;5053617;28;20214;-33
2023/06/04 12:10:54;;;;;;;4.63;2.47;;;;;;;;;;5049633;28;20219;-39
2023/06/04 12:13:21;;;;;;;3.28;2.67;;;;;;;;;;5051494;28;20216;-43
2023/06/04 12:15:52;;;;;;;5.18;3.28;;;;;;;;;;5052001;28;20235;-34
2023/06/04 12:18:24;;;;;;;3.83;2.83;;;;;;;;;;5050107;28;20210;-36
2023/06/04 12:20:52;;;;;;;3.10;2.67;;;;;;;;;;5056528;28;20195;-37
2023/06/04 12:23:21;;;;;;;7.63;2.90;;;;;;;;;;5073116;28;20207;-39
2023/06/04 12:25:51;;;;;;;4.25;2.50;;;;;;;;;;5039964;28;20228;-39
2023/06/04 12:28:20;;;;;;;3.58;2.60;;;;;;;;;;5052256;28;20197;-40
2023/06/04 12:30:47;;;;;;;3.38;2.65;;;;;;;;;;5052112;28;20204;-36
2023/06/04 12:33:14;;;;;;;4.30;3.15;;;;;;;;;;5042733;28;20231;-36
2023/06/04 12:35:41;;;;;;;5.07;3.00;;;;;;;;;;5058859;28;20235;-35
2023/06/04 12:38:09;;;;;;;4.78;3.17;;;;;;;;;;5052717;28;20241;-36
2023/06/04 12:40:36;;;;;;;2.90;2.58;;;;;;;;;;5049458;28;20208;-34
2023/06/04 12:43:03;;;;;;;2.85;2.40;;;;;;;;;;5056303;28;20212;-34
2023/06/04 12:45:32;;;;;;;5.43;3.08;;;;;;;;;;5060483;28;20227;-34
2023/06/04 12:47:59;;;;;;;4.30;2.83;;;;;;;;;;5049469;28;20215;-35
2023/06/04 12:50:26;;;;;;;3.30;2.65;;;;;;;;;;5069175;28;20222;-37
2023/06/04 12:52:53;;;;;;;4.30;2.80;;;;;;;;;;5072023;28;20215;-35
2023/06/04 12:55:20;;;;;;;4.10;2.47;;;;;;;;;;5068890;28;20211;-33
2023/06/04 12:57:48;;;;;;;2.67;2.47;;;;;;;;;;5044222;28;20204;-36
2023/06/04 13:00:16;;;;;;;2.80;2.50;;;;;;;;;;5060791;28;20204;-36
2023/06/04 13:02:44;;;;;;;2.90;2.70;;;;;;;;;;5042273;28;20239;-40
2023/06/04 13:05:11;;;;;;;3.17;2.88;;;;;;;;;;5058430;28;20207;-41
2023/06/04 13:07:38;;;;;;;4.20;2.33;;;;;;;;;;5072547;28;20229;-40
2023/06/04 13:10:06;;;;;;;3.03;2.70;;;;;;;;;;5076636;28;20215;-41
2023/06/04 13:12:33;;;;;;;3.20;2.88;;;;;;;;;;5055595;28;20221;-39
2023/06/04 13:15:02;;;;;;;2.72;2.50;;;;;;;;;;5068725;28;20211;-41
2023/06/04 13:17:29;;;;;;;2.38;2.15;;;;;;;;;;5054267;28;20225;-37
2023/06/04 13:19:58;;;;;;;3.42;2.70;;;;;;;;;;5066660;28;20207;-38
2023/06/04 13:22:25;;;;;;;5.93;2.40;;;;;;;;;;5072675;28;20206;-41
2023/06/04 13:24:52;;;;;;;3.80;2.67;;;;;;;;;;5076163;28;20215;-39
2023/06/04 13:27:19;;;;;;;2.90;2.50;;;;;;;;;;5051520;28;20232;-43
2023/06/04 13:29:46;;;;;;;2.97;2.63;;;;;;;;;;5058545;28;20211;-41
2023/06/04 13:32:13;;;;;;;2.67;2.45;;;;;;;;;;5046822;28;20215;-41
2023/06/04 13:34:40;;;;;;;3.85;2.80;;;;;;;;;;5056842;28;20205;-38
2023/06/04 13:37:10;;;;;;;4.20;2.90;;;;;;;;;;5061275;28;20592;-40
2023/06/04 13:39:37;;;;;;;3.70;2.63;;;;;;;;;;5052088;28;20200;-41
2023/06/04 13:42:05;;;;;;;4.57;2.83;;;;;;;;;;5064110;28;20213;-36
2023/06/04 13:44:32;;;;;;;4.55;2.72;;;;;;;;;;5066433;28;20568;-36
2023/06/04 13:47:01;;;;;;;2.50;2.28;;;;;;;;;;5063772;28;20227;-36
2023/06/04 13:49:28;;;;;;;2.58;2.35;;;;;;;;;;5063391;28;20204;-32
2023/06/04 13:51:55;;;;;;;2.63;2.38;;;;;;;;;;5068038;28;20208;-41
2023/06/04 13:54:23;;;;;;;2.78;2.40;;;;;;;;;;5075631;28;20211;-35
2023/06/04 13:56:50;;;;;;;3.90;2.40;;;;;;;;;;5057692;28;20220;-42
2023/06/04 13:59:18;;;;;;;4.90;2.30;;;;;;;;;;5056573;28;20209;-41
2023/06/04 14:01:45;;;;;;;5.05;2.80;;;;;;;;;;5051819;28;20201;-42
2023/06/04 14:04:12;;;;;;;3.17;2.60;;;;;;;;;;5064650;28;20204;-36
2023/06/04 14:06:39;;;;;;;2.50;2.30;;;;;;;;;;5056873;28;20228;-40
2023/06/04 14:09:06;;;;;;;2.88;2.42;;;;;;;;;;5055701;28;20216;-36
2023/06/04 14:11:35;;;;;;;3.28;2.53;;;;;;;;;;5043814;28;20211;-39
2023/06/04 14:14:02;;;;;;;4.65;2.60;;;;;;;;;;5053448;28;20238;-38
2023/06/04 14:16:29;;;;;;;2.88;2.58;;;;;;;;;;5054942;28;20224;-35
2023/06/04 14:18:56;;;;;;;2.47;2.28;;;;;;;;;;5057577;28;20236;-43
2023/06/04 14:21:23;;;;;;;4.10;2.72;;;;;;;;;;5065980;28;20215;-40
2023/06/04 14:23:51;;;;;;;3.45;2.45;;;;;;;;;;5075406;28;20214;-35
2023/06/04 14:26:19;;;;;;;2.58;2.38;;;;;;;;;;5065391;28;20233;-43
2023/06/04 14:28:47;;;;;;;2.60;2.40;;;;;;;;;;5044887;28;20211;-39
2023/06/04 14:31:14;;;;;;;2.88;2.53;;;;;;;;;;5050713;28;20208;-37
2023/06/04 14:33:41;;;;;;;3.55;2.70;;;;;;;;;;5051844;28;20206;-41
2023/06/04 14:36:08;;;;;;;2.80;2.60;;;;;;;;;;5074387;28;20238;-37
2023/06/04 14:38:36;;;;;;;4.45;2.60;;;;;;;;;;5075136;28;20215;-41
2023/06/04 14:41:06;;;;;;;5.97;2.40;;;;;;;;;;5045755;28;20203;-42
2023/06/04 14:43:33;;;;;;;2.88;2.45;;;;;;;;;;5054318;28;20207;-37
2023/06/04 14:46:02;;;;;;;3.08;2.03;;;;;;;;;;5053503;28;20246;-41
2023/06/04 14:48:29;;;;;;;3.13;2.60;;;;;;;;;;5050958;28;20228;-42